sensor_id;sensor_type;location;lat;lon;timestamp;temperature;humidity
27266;DHT22;14766;51.380;13.762;2023-07-13T00:01:55;28.10;37.60
27266;DHT22;14766;51.380;13.762;2023-07-13T00:04:24;28.10;37.60
27266;DHT22;14766;51.380;13.762;2023-07-13T00:06:53;28.10;38.00
27266;DHT22;14766;51.380;13.762;2023-07-13T00:09:20;28.00;38.00
27266;DHT22;14766;51.380;13.762;2023-07-13T00:11:57;28.00;38.20
27266;DHT22;14766;51.380;13.762;2023-07-13T00:14:26;28.00;38.30
27266;DHT22;14766;51.380;13.762;2023-07-13T00:16:55;27.90;38.20
27266;DHT22;14766;51.380;13.762;2023-07-13T00:19:22;27.90;38.30
27266;DHT22;14766;51.380;13.762;2023-07-13T00:21:49;27.90;38.30
27266;DHT22;14766;51.380;13.762;2023-07-13T00:24:17;27.90;38.50
27266;DHT22;14766;51.380;13.762;2023-07-13T00:26:50;27.90;38.70
27266;DHT22;14766;51.380;13.762;2023-07-13T00:29:18;27.80;38.50
27266;DHT22;14766;51.380;13.762;2023-07-13T00:31:45;27.80;38.50
27266;DHT22;14766;51.380;13.762;2023-07-13T00:34:13;27.70;38.60
27266;DHT22;14766;51.380;13.762;2023-07-13T00:36:40;27.70;38.60
27266;DHT22;14766;51.380;13.762;2023-07-13T00:39:08;27.70;38.90
27266;DHT22;14766;51.380;13.762;2023-07-13T00:41:36;27.60;38.90
27266;DHT22;14766;51.380;13.762;2023-07-13T00:44:04;27.50;39.10
27266;DHT22;14766;51.380;13.762;2023-07-13T00:46:33;27.50;39.20
27266;DHT22;14766;51.380;13.762;2023-07-13T00:49:08;27.50;39.20
27266;DHT22;14766;51.380;13.762;2023-07-13T00:51:41;27.40;39.50
27266;DHT22;14766;51.380;13.762;2023-07-13T00:54:14;27.50;39.60
27266;DHT22;14766;51.380;13.762;2023-07-13T00:56:43;27.40;39.70
27266;DHT22;14766;51.380;13.762;2023-07-13T00:59:13;27.40;39.60
27266;DHT22;14766;51.380;13.762;2023-07-13T01:01:42;27.40;39.80
27266;DHT22;14766;51.380;13.762;2023-07-13T01:04:10;27.40;39.90
27266;DHT22;14766;51.380;13.762;2023-07-13T01:06:38;27.40;40.00
27266;DHT22;14766;51.380;13.762;2023-07-13T01:09:07;27.40;40.10
27266;DHT22;14766;51.380;13.762;2023-07-13T01:11:35;27.40;40.30
27266;DHT22;14766;51.380;13.762;2023-07-13T01:14:03;27.40;40.30
27266;DHT22;14766;51.380;13.762;2023-07-13T01:16:32;27.30;40.30
27266;DHT22;14766;51.380;13.762;2023-07-13T01:19:00;27.40;40.40
27266;DHT22;14766;51.380;13.762;2023-07-13T01:21:31;27.30;40.30
27266;DHT22;14766;51.380;13.762;2023-07-13T01:24:01;27.30;40.10
27266;DHT22;14766;51.380;13.762;2023-07-13T01:26:29;27.30;40.10
27266;DHT22;14766;51.380;13.762;2023-07-13T01:28:56;27.30;40.20
27266;DHT22;14766;51.380;13.762;2023-07-13T01:31:23;27.30;40.20
27266;DHT22;14766;51.380;13.762;2023-07-13T01:33:52;27.20;40.40
27266;DHT22;14766;51.380;13.762;2023-07-13T01:36:20;27.20;40.30
27266;DHT22;14766;51.380;13.762;2023-07-13T01:38:48;27.20;40.50
27266;DHT22;14766;51.380;13.762;2023-07-13T01:41:16;27.20;40.60
27266;DHT22;14766;51.380;13.762;2023-07-13T01:43:45;27.20;40.50
27266;DHT22;14766;51.380;13.762;2023-07-13T01:46:12;27.20;40.50
27266;DHT22;14766;51.380;13.762;2023-07-13T01:48:42;27.20;40.50
27266;DHT22;14766;51.380;13.762;2023-07-13T01:51:09;27.20;40.50
27266;DHT22;14766;51.380;13.762;2023-07-13T01:53:36;27.20;40.70
27266;DHT22;14766;51.380;13.762;2023-07-13T01:56:03;27.20;40.70
27266;DHT22;14766;51.380;13.762;2023-07-13T01:58:30;27.10;40.70
27266;DHT22;14766;51.380;13.762;2023-07-13T02:00:57;27.10;40.60
27266;DHT22;14766;51.380;13.762;2023-07-13T02:03:27;27.10;40.60
27266;DHT22;14766;51.380;13.762;2023-07-13T02:05:57;27.00;40.60
27266;DHT22;14766;51.380;13.762;2023-07-13T02:08:25;27.00;40.60
27266;DHT22;14766;51.380;13.762;2023-07-13T02:10:51;26.90;40.50
27266;DHT22;14766;51.380;13.762;2023-07-13T02:13:19;26.90;40.80
27266;DHT22;14766;51.380;13.762;2023-07-13T02:15:46;26.90;40.90
27266;DHT22;14766;51.380;13.762;2023-07-13T02:18:13;26.90;40.80
27266;DHT22;14766;51.380;13.762;2023-07-13T02:20:44;26.80;40.80
27266;DHT22;14766;51.380;13.762;2023-07-13T02:23:11;26.70;40.80
27266;DHT22;14766;51.380;13.762;2023-07-13T02:25:39;26.70;41.00
27266;DHT22;14766;51.380;13.762;2023-07-13T02:28:07;26.60;41.00
27266;DHT22;14766;51.380;13.762;2023-07-13T02:30:35;26.60;41.30
27266;DHT22;14766;51.380;13.762;2023-07-13T02:33:03;26.60;41.30
27266;DHT22;14766;51.380;13.762;2023-07-13T02:35:31;26.50;41.30
27266;DHT22;14766;51.380;13.762;2023-07-13T02:37:58;26.50;41.30
27266;DHT22;14766;51.380;13.762;2023-07-13T02:40:25;26.50;41.30
27266;DHT22;14766;51.380;13.762;2023-07-13T02:42:52;26.40;41.30
27266;DHT22;14766;51.380;13.762;2023-07-13T02:45:19;26.40;41.40
27266;DHT22;14766;51.380;13.762;2023-07-13T02:47:46;26.40;41.60
27266;DHT22;14766;51.380;13.762;2023-07-13T02:50:14;26.40;41.90
27266;DHT22;14766;51.380;13.762;2023-07-13T02:52:41;26.40;41.90
27266;DHT22;14766;51.380;13.762;2023-07-13T02:55:08;26.40;41.90
27266;DHT22;14766;51.380;13.762;2023-07-13T02:57:36;26.40;41.90
27266;DHT22;14766;51.380;13.762;2023-07-13T03:00:05;26.40;41.90
27266;DHT22;14766;51.380;13.762;2023-07-13T03:02:34;26.30;42.00
27266;DHT22;14766;51.380;13.762;2023-07-13T03:05:05;26.30;41.90
27266;DHT22;14766;51.380;13.762;2023-07-13T03:07:32;26.40;42.10
27266;DHT22;14766;51.380;13.762;2023-07-13T03:10:00;26.40;41.90
27266;DHT22;14766;51.380;13.762;2023-07-13T03:12:40;26.40;41.90
27266;DHT22;14766;51.380;13.762;2023-07-13T03:15:18;26.30;41.90
27266;DHT22;14766;51.380;13.762;2023-07-13T03:17:46;26.40;41.90
27266;DHT22;14766;51.380;13.762;2023-07-13T03:20:15;26.40;41.80
27266;DHT22;14766;51.380;13.762;2023-07-13T03:22:44;26.40;41.60
27266;DHT22;14766;51.380;13.762;2023-07-13T03:25:12;26.30;41.50
27266;DHT22;14766;51.380;13.762;2023-07-13T03:27:39;26.20;41.30
27266;DHT22;14766;51.380;13.762;2023-07-13T03:30:09;26.20;41.30
27266;DHT22;14766;51.380;13.762;2023-07-13T03:32:36;26.20;41.30
27266;DHT22;14766;51.380;13.762;2023-07-13T03:35:04;26.20;41.30
27266;DHT22;14766;51.380;13.762;2023-07-13T03:37:31;26.10;41.20
27266;DHT22;14766;51.380;13.762;2023-07-13T03:39:59;26.10;41.20
27266;DHT22;14766;51.380;13.762;2023-07-13T03:42:26;26.10;41.20
27266;DHT22;14766;51.380;13.762;2023-07-13T03:44:54;26.00;41.40
27266;DHT22;14766;51.380;13.762;2023-07-13T03:47:22;26.00;41.40
27266;DHT22;14766;51.380;13.762;2023-07-13T03:49:52;26.00;41.50
27266;DHT22;14766;51.380;13.762;2023-07-13T03:52:20;26.00;41.60
27266;DHT22;14766;51.380;13.762;2023-07-13T03:54:47;26.00;41.60
27266;DHT22;14766;51.380;13.762;2023-07-13T03:57:16;26.00;41.70
27266;DHT22;14766;51.380;13.762;2023-07-13T03:59:43;25.90;41.60
27266;DHT22;14766;51.380;13.762;2023-07-13T04:02:10;25.90;41.70
27266;DHT22;14766;51.380;13.762;2023-07-13T04:04:37;25.90;41.70
27266;DHT22;14766;51.380;13.762;2023-07-13T04:07:07;25.90;41.80
27266;DHT22;14766;51.380;13.762;2023-07-13T04:09:37;25.90;41.90
27266;DHT22;14766;51.380;13.762;2023-07-13T04:12:04;25.90;42.00
27266;DHT22;14766;51.380;13.762;2023-07-13T04:14:31;25.80;41.80
27266;DHT22;14766;51.380;13.762;2023-07-13T04:16:59;25.80;41.90
27266;DHT22;14766;51.380;13.762;2023-07-13T04:19:27;25.90;42.10
27266;DHT22;14766;51.380;13.762;2023-07-13T04:21:54;25.90;42.00
27266;DHT22;14766;51.380;13.762;2023-07-13T04:24:21;25.90;41.80
27266;DHT22;14766;51.380;13.762;2023-07-13T04:26:48;25.90;41.80
27266;DHT22;14766;51.380;13.762;2023-07-13T04:29:15;26.00;41.80
27266;DHT22;14766;51.380;13.762;2023-07-13T04:31:42;26.00;41.80
27266;DHT22;14766;51.380;13.762;2023-07-13T04:34:09;26.00;42.30
27266;DHT22;14766;51.380;13.762;2023-07-13T04:36:36;26.10;41.70
27266;DHT22;14766;51.380;13.762;2023-07-13T04:39:04;26.10;41.70
27266;DHT22;14766;51.380;13.762;2023-07-13T04:41:31;26.10;41.70
27266;DHT22;14766;51.380;13.762;2023-07-13T04:43:58;26.20;41.70
27266;DHT22;14766;51.380;13.762;2023-07-13T04:46:25;26.20;41.60
27266;DHT22;14766;51.380;13.762;2023-07-13T04:48:52;26.20;41.40
27266;DHT22;14766;51.380;13.762;2023-07-13T04:51:20;26.30;41.40
27266;DHT22;14766;51.380;13.762;2023-07-13T04:53:47;26.30;41.30
27266;DHT22;14766;51.380;13.762;2023-07-13T04:56:14;26.30;41.10
27266;DHT22;14766;51.380;13.762;2023-07-13T04:58:41;26.40;41.20
27266;DHT22;14766;51.380;13.762;2023-07-13T05:01:09;26.40;41.00
27266;DHT22;14766;51.380;13.762;2023-07-13T05:03:37;26.40;40.90
27266;DHT22;14766;51.380;13.762;2023-07-13T05:06:06;26.50;40.80
27266;DHT22;14766;51.380;13.762;2023-07-13T05:08:34;26.50;40.90
27266;DHT22;14766;51.380;13.762;2023-07-13T05:11:03;26.60;40.80
27266;DHT22;14766;51.380;13.762;2023-07-13T05:13:31;26.70;40.60
27266;DHT22;14766;51.380;13.762;2023-07-13T05:16:03;26.70;40.50
27266;DHT22;14766;51.380;13.762;2023-07-13T05:18:31;26.70;40.50
27266;DHT22;14766;51.380;13.762;2023-07-13T05:21:09;26.70;40.50
27266;DHT22;14766;51.380;13.762;2023-07-13T05:23:36;26.80;41.10
27266;DHT22;14766;51.380;13.762;2023-07-13T05:26:04;26.80;40.50
27266;DHT22;14766;51.380;13.762;2023-07-13T05:28:35;26.80;40.60
27266;DHT22;14766;51.380;13.762;2023-07-13T05:31:04;26.80;40.50
27266;DHT22;14766;51.380;13.762;2023-07-13T05:33:31;26.80;40.50
27266;DHT22;14766;51.380;13.762;2023-07-13T05:35:58;26.80;40.50
27266;DHT22;14766;51.380;13.762;2023-07-13T05:38:27;26.80;40.40
27266;DHT22;14766;51.380;13.762;2023-07-13T05:40:56;26.90;40.50
27266;DHT22;14766;51.380;13.762;2023-07-13T05:43:23;26.80;40.50
27266;DHT22;14766;51.380;13.762;2023-07-13T05:45:55;26.80;40.50
27266;DHT22;14766;51.380;13.762;2023-07-13T05:48:23;26.80;40.70
27266;DHT22;14766;51.380;13.762;2023-07-13T05:50:51;26.80;40.80
27266;DHT22;14766;51.380;13.762;2023-07-13T05:53:19;26.80;41.60
27266;DHT22;14766;51.380;13.762;2023-07-13T05:55:47;26.80;41.50
27266;DHT22;14766;51.380;13.762;2023-07-13T05:58:17;26.80;40.90
27266;DHT22;14766;51.380;13.762;2023-07-13T06:00:45;26.80;41.10
27266;DHT22;14766;51.380;13.762;2023-07-13T06:03:14;26.80;41.10
27266;DHT22;14766;51.380;13.762;2023-07-13T06:05:41;26.80;41.10
27266;DHT22;14766;51.380;13.762;2023-07-13T06:08:09;26.90;41.10
27266;DHT22;14766;51.380;13.762;2023-07-13T06:10:36;26.90;41.10
27266;DHT22;14766;51.380;13.762;2023-07-13T06:13:06;27.00;41.20
27266;DHT22;14766;51.380;13.762;2023-07-13T06:15:34;27.10;40.90
27266;DHT22;14766;51.380;13.762;2023-07-13T06:18:01;27.20;40.80
27266;DHT22;14766;51.380;13.762;2023-07-13T06:20:30;27.30;40.70
27266;DHT22;14766;51.380;13.762;2023-07-13T06:22:57;27.40;40.70
27266;DHT22;14766;51.380;13.762;2023-07-13T06:25:26;27.40;40.40
27266;DHT22;14766;51.380;13.762;2023-07-13T06:27:53;27.50;41.00
27266;DHT22;14766;51.380;13.762;2023-07-13T06:30:20;27.60;40.30
27266;DHT22;14766;51.380;13.762;2023-07-13T06:32:48;27.60;40.20
27266;DHT22;14766;51.380;13.762;2023-07-13T06:35:15;27.70;40.10
27266;DHT22;14766;51.380;13.762;2023-07-13T06:37:42;27.80;39.80
27266;DHT22;14766;51.380;13.762;2023-07-13T06:40:10;27.80;39.80
27266;DHT22;14766;51.380;13.762;2023-07-13T06:42:38;27.90;39.70
27266;DHT22;14766;51.380;13.762;2023-07-13T06:45:06;28.00;39.40
27266;DHT22;14766;51.380;13.762;2023-07-13T06:47:33;28.00;39.40
27266;DHT22;14766;51.380;13.762;2023-07-13T06:50:01;28.10;39.40
27266;DHT22;14766;51.380;13.762;2023-07-13T06:52:28;28.20;39.40
27266;DHT22;14766;51.380;13.762;2023-07-13T06:54:55;28.30;38.80
27266;DHT22;14766;51.380;13.762;2023-07-13T06:57:22;28.40;38.80
27266;DHT22;14766;51.380;13.762;2023-07-13T06:59:49;28.40;38.20
27266;DHT22;14766;51.380;13.762;2023-07-13T07:02:17;28.50;37.90
27266;DHT22;14766;51.380;13.762;2023-07-13T07:04:44;28.60;38.00
27266;DHT22;14766;51.380;13.762;2023-07-13T07:07:11;28.70;38.40
27266;DHT22;14766;51.380;13.762;2023-07-13T07:09:38;28.70;36.80
27266;DHT22;14766;51.380;13.762;2023-07-13T07:12:05;28.80;37.20
27266;DHT22;14766;51.380;13.762;2023-07-13T07:14:32;28.90;36.80
27266;DHT22;14766;51.380;13.762;2023-07-13T07:17:01;28.90;36.50
27266;DHT22;14766;51.380;13.762;2023-07-13T07:19:30;29.10;35.60
27266;DHT22;14766;51.380;13.762;2023-07-13T07:21:57;29.20;35.70
27266;DHT22;14766;51.380;13.762;2023-07-13T07:24:24;29.30;35.80
27266;DHT22;14766;51.380;13.762;2023-07-13T07:26:53;29.40;35.50
27266;DHT22;14766;51.380;13.762;2023-07-13T07:29:24;29.40;35.50
27266;DHT22;14766;51.380;13.762;2023-07-13T07:31:55;29.50;35.00
27266;DHT22;14766;51.380;13.762;2023-07-13T07:34:25;29.60;35.50
27266;DHT22;14766;51.380;13.762;2023-07-13T07:36:54;29.70;35.70
27266;DHT22;14766;51.380;13.762;2023-07-13T07:39:24;29.70;35.60
27266;DHT22;14766;51.380;13.762;2023-07-13T07:41:51;29.90;35.30
27266;DHT22;14766;51.380;13.762;2023-07-13T07:44:21;30.00;35.50
27266;DHT22;14766;51.380;13.762;2023-07-13T07:46:49;30.10;35.20
27266;DHT22;14766;51.380;13.762;2023-07-13T07:49:16;30.10;34.20
27266;DHT22;14766;51.380;13.762;2023-07-13T07:51:43;30.20;34.20
27266;DHT22;14766;51.380;13.762;2023-07-13T07:54:10;30.20;34.10
27266;DHT22;14766;51.380;13.762;2023-07-13T07:56:44;30.30;34.50
27266;DHT22;14766;51.380;13.762;2023-07-13T07:59:31;30.40;34.20
27266;DHT22;14766;51.380;13.762;2023-07-13T08:02:18;30.40;34.60
27266;DHT22;14766;51.380;13.762;2023-07-13T08:04:48;30.40;33.40
27266;DHT22;14766;51.380;13.762;2023-07-13T08:07:18;30.30;33.50
27266;DHT22;14766;51.380;13.762;2023-07-13T08:09:46;30.30;33.40
27266;DHT22;14766;51.380;13.762;2023-07-13T08:12:14;30.30;33.60
27266;DHT22;14766;51.380;13.762;2023-07-13T08:14:44;30.40;34.00
27266;DHT22;14766;51.380;13.762;2023-07-13T08:17:22;30.40;34.20
27266;DHT22;14766;51.380;13.762;2023-07-13T08:19:50;30.60;34.20
27266;DHT22;14766;51.380;13.762;2023-07-13T08:22:18;30.70;34.10
27266;DHT22;14766;51.380;13.762;2023-07-13T08:24:46;30.90;33.20
27266;DHT22;14766;51.380;13.762;2023-07-13T08:27:23;31.10;32.70
27266;DHT22;14766;51.380;13.762;2023-07-13T08:29:51;31.20;32.60
27266;DHT22;14766;51.380;13.762;2023-07-13T08:32:19;31.30;32.40
27266;DHT22;14766;51.380;13.762;2023-07-13T08:34:46;31.40;32.20
27266;DHT22;14766;51.380;13.762;2023-07-13T08:37:15;31.50;31.80
27266;DHT22;14766;51.380;13.762;2023-07-13T08:39:43;31.60;31.70
27266;DHT22;14766;51.380;13.762;2023-07-13T08:47:26;31.90;31.60
27266;DHT22;14766;51.380;13.762;2023-07-13T08:49:55;31.90;30.60
27266;DHT22;14766;51.380;13.762;2023-07-13T08:52:36;31.90;30.90
27266;DHT22;14766;51.380;13.762;2023-07-13T08:55:26;31.90;30.90
27266;DHT22;14766;51.380;13.762;2023-07-13T08:58:15;31.90;30.80
27266;DHT22;14766;51.380;13.762;2023-07-13T09:01:31;31.90;31.10
27266;DHT22;14766;51.380;13.762;2023-07-13T09:04:09;32.00;31.10
27266;DHT22;14766;51.380;13.762;2023-07-13T09:09:53;32.20;31.00
27266;DHT22;14766;51.380;13.762;2023-07-13T09:12:27;32.30;30.30
27266;DHT22;14766;51.380;13.762;2023-07-13T09:14:58;32.30;30.80
27266;DHT22;14766;51.380;13.762;2023-07-13T09:17:40;32.40;31.00
27266;DHT22;14766;51.380;13.762;2023-07-13T09:20:19;32.50;30.50
27266;DHT22;14766;51.380;13.762;2023-07-13T09:22:49;32.60;29.40
27266;DHT22;14766;51.380;13.762;2023-07-13T09:25:32;32.60;29.60
27266;DHT22;14766;51.380;13.762;2023-07-13T09:28:11;32.70;29.90
27266;DHT22;14766;51.380;13.762;2023-07-13T09:30:51;32.80;30.00
27266;DHT22;14766;51.380;13.762;2023-07-13T09:33:21;33.00;30.00
27266;DHT22;14766;51.380;13.762;2023-07-13T09:35:49;33.20;30.00
27266;DHT22;14766;51.380;13.762;2023-07-13T09:38:18;33.40;29.80
27266;DHT22;14766;51.380;13.762;2023-07-13T09:46:37;33.80;27.20
27266;DHT22;14766;51.380;13.762;2023-07-13T09:49:05;33.90;27.50
27266;DHT22;14766;51.380;13.762;2023-07-13T09:51:32;34.00;27.60
27266;DHT22;14766;51.380;13.762;2023-07-13T09:53:59;34.10;28.00
27266;DHT22;14766;51.380;13.762;2023-07-13T09:56:28;34.30;27.40
27266;DHT22;14766;51.380;13.762;2023-07-13T09:58:59;34.40;27.60
27266;DHT22;14766;51.380;13.762;2023-07-13T10:01:34;34.50;27.10
27266;DHT22;14766;51.380;13.762;2023-07-13T10:04:02;34.60;26.40
27266;DHT22;14766;51.380;13.762;2023-07-13T10:06:39;34.70;26.40
27266;DHT22;14766;51.380;13.762;2023-07-13T10:09:16;34.60;26.10
27266;DHT22;14766;51.380;13.762;2023-07-13T10:11:43;34.50;26.20
27266;DHT22;14766;51.380;13.762;2023-07-13T10:14:16;34.40;26.30
27266;DHT22;14766;51.380;13.762;2023-07-13T10:16:46;34.20;26.20
27266;DHT22;14766;51.380;13.762;2023-07-13T10:19:26;34.10;26.50
27266;DHT22;14766;51.380;13.762;2023-07-13T10:22:00;33.90;26.50
27266;DHT22;14766;51.380;13.762;2023-07-13T10:24:32;33.70;26.60
27266;DHT22;14766;51.380;13.762;2023-07-13T10:27:01;33.50;27.00
27266;DHT22;14766;51.380;13.762;2023-07-13T10:29:39;33.40;27.30
27266;DHT22;14766;51.380;13.762;2023-07-13T10:32:12;33.20;27.60
27266;DHT22;14766;51.380;13.762;2023-07-13T10:34:43;32.90;27.90
27266;DHT22;14766;51.380;13.762;2023-07-13T10:37:25;32.70;28.20
27266;DHT22;14766;51.380;13.762;2023-07-13T10:39:55;32.50;28.40
27266;DHT22;14766;51.380;13.762;2023-07-13T10:42:38;32.40;28.70
27266;DHT22;14766;51.380;13.762;2023-07-13T10:45:18;32.20;28.80
27266;DHT22;14766;51.380;13.762;2023-07-13T10:47:46;32.00;29.00
27266;DHT22;14766;51.380;13.762;2023-07-13T10:50:21;31.90;29.20
27266;DHT22;14766;51.380;13.762;2023-07-13T10:52:50;31.80;29.30
27266;DHT22;14766;51.380;13.762;2023-07-13T10:55:38;31.70;28.80
27266;DHT22;14766;51.380;13.762;2023-07-13T10:58:29;31.60;28.50
27266;DHT22;14766;51.380;13.762;2023-07-13T11:01:11;31.50;29.30
27266;DHT22;14766;51.380;13.762;2023-07-13T11:04:11;31.40;28.90
27266;DHT22;14766;51.380;13.762;2023-07-13T11:06:43;31.30;29.10
27266;DHT22;14766;51.380;13.762;2023-07-13T11:09:36;31.30;29.50
27266;DHT22;14766;51.380;13.762;2023-07-13T11:20:10;31.10;29.00
27266;DHT22;14766;51.380;13.762;2023-07-13T11:22:51;31.10;29.10
27266;DHT22;14766;51.380;13.762;2023-07-13T11:25:27;31.00;29.60
27266;DHT22;14766;51.380;13.762;2023-07-13T11:30:49;31.20;29.30
27266;DHT22;14766;51.380;13.762;2023-07-13T11:36:13;31.50;28.80
27266;DHT22;14766;51.380;13.762;2023-07-13T11:38:42;31.70;28.40
27266;DHT22;14766;51.380;13.762;2023-07-13T11:41:22;31.80;27.80
27266;DHT22;14766;51.380;13.762;2023-07-13T11:43:55;31.90;27.40
27266;DHT22;14766;51.380;13.762;2023-07-13T11:46:27;32.00;27.60
27266;DHT22;14766;51.380;13.762;2023-07-13T11:48:55;32.00;27.40
27266;DHT22;14766;51.380;13.762;2023-07-13T11:51:28;32.20;27.10
27266;DHT22;14766;51.380;13.762;2023-07-13T11:53:57;32.30;26.20
27266;DHT22;14766;51.380;13.762;2023-07-13T11:56:26;32.40;26.30
27266;DHT22;14766;51.380;13.762;2023-07-13T11:58:56;32.40;26.10
27266;DHT22;14766;51.380;13.762;2023-07-13T12:01:30;32.40;25.70
27266;DHT22;14766;51.380;13.762;2023-07-13T12:04:02;32.50;25.90
27266;DHT22;14766;51.380;13.762;2023-07-13T12:06:33;32.50;26.20
27266;DHT22;14766;51.380;13.762;2023-07-13T12:09:11;32.60;26.20
27266;DHT22;14766;51.380;13.762;2023-07-13T12:11:41;32.70;25.90
27266;DHT22;14766;51.380;13.762;2023-07-13T12:14:17;32.80;25.90
27266;DHT22;14766;51.380;13.762;2023-07-13T12:16:46;32.90;25.80
27266;DHT22;14766;51.380;13.762;2023-07-13T12:19:22;33.00;25.50
27266;DHT22;14766;51.380;13.762;2023-07-13T12:21:52;33.00;25.90
27266;DHT22;14766;51.380;13.762;2023-07-13T12:24:21;33.00;25.90
27266;DHT22;14766;51.380;13.762;2023-07-13T12:26:55;33.00;26.00
27266;DHT22;14766;51.380;13.762;2023-07-13T12:29:25;33.00;25.90
27266;DHT22;14766;51.380;13.762;2023-07-13T12:31:52;33.10;25.80
27266;DHT22;14766;51.380;13.762;2023-07-13T12:34:23;33.00;25.80
27266;DHT22;14766;51.380;13.762;2023-07-13T12:36:55;33.00;25.80
27266;DHT22;14766;51.380;13.762;2023-07-13T12:39:45;32.90;25.90
27266;DHT22;14766;51.380;13.762;2023-07-13T12:42:31;32.90;25.70
27266;DHT22;14766;51.380;13.762;2023-07-13T12:45:33;32.80;25.90
27266;DHT22;14766;51.380;13.762;2023-07-13T12:48:05;32.70;26.00
27266;DHT22;14766;51.380;13.762;2023-07-13T12:50:42;32.70;26.00
27266;DHT22;14766;51.380;13.762;2023-07-13T12:53:15;32.70;25.50
27266;DHT22;14766;51.380;13.762;2023-07-13T12:55:48;32.60;25.40
27266;DHT22;14766;51.380;13.762;2023-07-13T12:58:22;32.60;25.90
27266;DHT22;14766;51.380;13.762;2023-07-13T13:00:54;32.60;25.70
27266;DHT22;14766;51.380;13.762;2023-07-13T13:03:33;32.60;26.00
27266;DHT22;14766;51.380;13.762;2023-07-13T13:06:20;32.70;25.60
27266;DHT22;14766;51.380;13.762;2023-07-13T13:08:52;32.70;25.60
27266;DHT22;14766;51.380;13.762;2023-07-13T13:11:21;32.70;25.50
27266;DHT22;14766;51.380;13.762;2023-07-13T13:13:50;32.70;25.50
27266;DHT22;14766;51.380;13.762;2023-07-13T13:18:50;32.70;25.60
27266;DHT22;14766;51.380;13.762;2023-07-13T13:21:18;32.70;25.30
27266;DHT22;14766;51.380;13.762;2023-07-13T13:23:46;32.60;25.40
27266;DHT22;14766;51.380;13.762;2023-07-13T13:26:15;32.60;25.80
27266;DHT22;14766;51.380;13.762;2023-07-13T13:28:45;32.60;25.60
27266;DHT22;14766;51.380;13.762;2023-07-13T13:31:14;32.60;25.60
27266;DHT22;14766;51.380;13.762;2023-07-13T13:33:44;32.70;25.70
27266;DHT22;14766;51.380;13.762;2023-07-13T13:36:16;32.70;25.50
27266;DHT22;14766;51.380;13.762;2023-07-13T13:38:44;32.80;25.00
27266;DHT22;14766;51.380;13.762;2023-07-13T13:41:13;32.80;24.90
27266;DHT22;14766;51.380;13.762;2023-07-13T13:43:41;32.80;24.50
27266;DHT22;14766;51.380;13.762;2023-07-13T13:46:21;32.80;24.70
27266;DHT22;14766;51.380;13.762;2023-07-13T13:48:52;32.70;24.70
27266;DHT22;14766;51.380;13.762;2023-07-13T13:51:21;32.70;24.70
27266;DHT22;14766;51.380;13.762;2023-07-13T13:53:49;32.60;24.70
27266;DHT22;14766;51.380;13.762;2023-07-13T13:56:19;32.50;24.90
27266;DHT22;14766;51.380;13.762;2023-07-13T13:58:46;32.50;25.20
27266;DHT22;14766;51.380;13.762;2023-07-13T14:01:18;32.50;25.20
27266;DHT22;14766;51.380;13.762;2023-07-13T14:03:46;32.50;25.40
27266;DHT22;14766;51.380;13.762;2023-07-13T14:06:16;32.50;25.40
27266;DHT22;14766;51.380;13.762;2023-07-13T14:08:43;32.50;25.30
27266;DHT22;14766;51.380;13.762;2023-07-13T14:11:16;32.60;25.20
27266;DHT22;14766;51.380;13.762;2023-07-13T14:13:49;32.60;25.00
27266;DHT22;14766;51.380;13.762;2023-07-13T14:16:19;32.50;24.80
27266;DHT22;14766;51.380;13.762;2023-07-13T14:18:49;32.50;25.00
27266;DHT22;14766;51.380;13.762;2023-07-13T14:21:19;32.40;25.20
27266;DHT22;14766;51.380;13.762;2023-07-13T14:23:48;32.40;25.40
27266;DHT22;14766;51.380;13.762;2023-07-13T14:26:21;32.40;25.50
27266;DHT22;14766;51.380;13.762;2023-07-13T14:28:52;32.40;25.40
27266;DHT22;14766;51.380;13.762;2023-07-13T14:31:19;32.40;25.10
27266;DHT22;14766;51.380;13.762;2023-07-13T14:33:47;32.30;24.70
27266;DHT22;14766;51.380;13.762;2023-07-13T14:36:39;32.30;24.80
27266;DHT22;14766;51.380;13.762;2023-07-13T14:39:20;32.20;24.80
27266;DHT22;14766;51.380;13.762;2023-07-13T14:41:53;32.20;25.00
27266;DHT22;14766;51.380;13.762;2023-07-13T14:44:25;32.10;24.70
27266;DHT22;14766;51.380;13.762;2023-07-13T14:46:53;32.00;25.20
27266;DHT22;14766;51.380;13.762;2023-07-13T14:49:40;32.00;24.70
27266;DHT22;14766;51.380;13.762;2023-07-13T14:52:20;31.90;25.20
27266;DHT22;14766;51.380;13.762;2023-07-13T14:54:52;31.80;25.40
27266;DHT22;14766;51.380;13.762;2023-07-13T14:57:21;31.80;25.50
27266;DHT22;14766;51.380;13.762;2023-07-13T14:59:48;31.80;25.60
27266;DHT22;14766;51.380;13.762;2023-07-13T15:02:27;31.80;25.60
27266;DHT22;14766;51.380;13.762;2023-07-13T15:04:57;31.80;25.60
27266;DHT22;14766;51.380;13.762;2023-07-13T15:07:25;31.80;25.30
27266;DHT22;14766;51.380;13.762;2023-07-13T15:09:53;31.80;25.40
27266;DHT22;14766;51.380;13.762;2023-07-13T15:12:22;31.90;25.60
27266;DHT22;14766;51.380;13.762;2023-07-13T15:14:49;32.00;25.70
27266;DHT22;14766;51.380;13.762;2023-07-13T15:17:31;32.00;25.60
27266;DHT22;14766;51.380;13.762;2023-07-13T15:20:00;32.00;25.60
27266;DHT22;14766;51.380;13.762;2023-07-13T15:22:27;32.10;25.60
27266;DHT22;14766;51.380;13.762;2023-07-13T15:24:54;32.10;24.40
27266;DHT22;14766;51.380;13.762;2023-07-13T15:27:25;32.20;24.30
27266;DHT22;14766;51.380;13.762;2023-07-13T15:29:54;32.20;24.30
27266;DHT22;14766;51.380;13.762;2023-07-13T15:32:21;32.20;24.20
27266;DHT22;14766;51.380;13.762;2023-07-13T15:34:48;32.20;24.50
27266;DHT22;14766;51.380;13.762;2023-07-13T15:37:17;32.30;24.50
27266;DHT22;14766;51.380;13.762;2023-07-13T15:39:44;32.20;24.40
27266;DHT22;14766;51.380;13.762;2023-07-13T15:42:20;32.20;24.30
27266;DHT22;14766;51.380;13.762;2023-07-13T15:44:47;32.20;24.20
27266;DHT22;14766;51.380;13.762;2023-07-13T15:47:15;32.20;24.10
27266;DHT22;14766;51.380;13.762;2023-07-13T15:49:43;32.20;24.00
27266;DHT22;14766;51.380;13.762;2023-07-13T15:52:23;32.10;23.80
27266;DHT22;14766;51.380;13.762;2023-07-13T15:54:50;32.10;23.90
27266;DHT22;14766;51.380;13.762;2023-07-13T15:57:18;32.00;23.90
27266;DHT22;14766;51.380;13.762;2023-07-13T15:59:47;32.00;23.90
27266;DHT22;14766;51.380;13.762;2023-07-13T16:02:18;32.00;24.00
27266;DHT22;14766;51.380;13.762;2023-07-13T16:04:47;31.90;23.80
27266;DHT22;14766;51.380;13.762;2023-07-13T16:07:15;31.90;23.90